Time;durP1;ratioP1;P1;durP2;ratioP2;P2;SDS_P1;SDS_P2;PMS_P1;PMS_P2;Temp;Humidity;BMP_temperature;BMP_pressure;BME280_temperature;BME280_humidity;BME280_pressure;Samples;Min_cycle;Max_cycle;Signal;HPM_P1;HPM_P2
2021/05/12 00:02:25;;;;;;;10.35;5.13;;;19.20;99.90;;;;;;6338677;22;20010;-76
2021/05/12 00:04:51;;;;;;;14.77;6.03;;;19.20;99.90;;;;;;6338546;22;20014;-78
2021/05/12 00:07:17;;;;;;;11.05;4.57;;;19.10;99.90;;;;;;6338160;22;20083;-77
2021/05/12 00:09:43;;;;;;;11.07;4.10;;;19.10;99.90;;;;;;6339106;22;20010;-77
2021/05/12 00:12:10;;;;;;;10.35;4.75;;;19.10;99.90;;;;;;6338865;22;19999;-78
2021/05/12 00:14:37;;;;;;;16.83;5.72;;;19.10;99.90;;;;;;6311079;22;20003;-77
2021/05/12 00:17:04;;;;;;;13.38;4.43;;;19.10;99.90;;;;;;6339131;22;19999;-80
2021/05/12 00:19:33;;;;;;;10.50;4.65;;;19.00;99.90;;;;;;6338725;22;19999;-77
2021/05/12 00:24:35;;;;;;;12.63;4.82;;;19.00;99.90;;;;;;6342800;22;20002;-80
2021/05/12 00:27:00;;;;;;;12.65;5.30;;;18.90;99.90;;;;;;6349998;22;20087;-77
2021/05/12 00:29:26;;;;;;;13.93;5.55;;;18.90;99.90;;;;;;6338702;22;20003;-78
2021/05/12 00:31:52;;;;;;;17.20;6.00;;;19.00;99.90;;;;;;6338561;22;19999;-76
2021/05/12 00:34:18;;;;;;;12.13;5.25;;;18.90;99.90;;;;;;6338604;22;20010;-76
2021/05/12 00:36:44;;;;;;;12.20;4.90;;;18.90;99.90;;;;;;6338544;22;19998;-77
2021/05/12 00:39:10;;;;;;;12.80;5.17;;;19.00;99.90;;;;;;6338470;22;19999;-76
2021/05/12 00:41:37;;;;;;;15.73;5.22;;;19.00;99.90;;;;;;6338443;22;20010;-76
2021/05/12 00:44:21;;;;;;;10.32;5.10;;;18.90;99.90;;;;;;6338474;22;19990;-77
2021/05/12 00:46:49;;;;;;;13.93;4.65;;;19.00;99.90;;;;;;6310650;22;20341;-76
2021/05/12 00:49:16;;;;;;;12.75;5.35;;;19.00;99.90;;;;;;6338656;22;20007;-76
2021/05/12 00:51:42;;;;;;;11.10;5.10;;;19.10;99.90;;;;;;6338435;22;20007;-77
2021/05/12 00:54:09;;;;;;;11.63;5.10;;;19.00;99.90;;;;;;6338283;22;20003;-82
2021/05/12 00:56:37;;;;;;;14.68;5.70;;;19.00;99.90;;;;;;6338380;22;20002;-78
2021/05/12 00:59:03;;;;;;;10.73;5.07;;;19.10;99.90;;;;;;6338801;22;20014;-77
2021/05/12 01:01:29;;;;;;;12.13;4.95;;;19.00;99.90;;;;;;6338389;22;20010;-77
2021/05/12 01:03:56;;;;;;;13.25;5.03;;;19.00;99.90;;;;;;6338343;22;19999;-79
2021/05/12 01:06:33;;;;;;;18.10;6.35;;;19.10;99.90;;;;;;6337991;22;20021;-77
2021/05/12 01:12:47;;;;;;;11.52;5.28;;;19.00;99.90;;;;;;6338246;22;20423;-80
2021/05/12 01:15:14;;;;;;;18.17;5.25;;;19.00;99.90;;;;;;6338371;22;20018;-76
2021/05/12 01:17:41;;;;;;;13.70;4.53;;;19.10;99.90;;;;;;6338454;22;20037;-76
2021/05/12 01:20:08;;;;;;;9.63;4.40;;;19.10;99.90;;;;;;6338033;22;20063;-78
2021/05/12 01:22:34;;;;;;;10.68;5.30;;;19.10;99.90;;;;;;6338087;22;20007;-77
2021/05/12 01:25:00;;;;;;;11.52;5.00;;;19.00;99.90;;;;;;6338054;22;20005;-76
2021/05/12 01:27:26;;;;;;;13.85;5.50;;;19.00;99.90;;;;;;6337985;22;20042;-77
2021/05/12 01:29:52;;;;;;;11.20;5.07;;;19.00;99.90;;;;;;6338252;22;20051;-77
2021/05/12 01:32:18;;;;;;;16.07;5.17;;;19.00;99.90;;;;;;6338283;22;20244;-76
2021/05/12 01:34:44;;;;;;;15.38;4.75;;;18.90;99.90;;;;;;6338113;22;20240;-77
2021/05/12 01:37:10;;;;;;;10.77;4.40;;;18.90;99.90;;;;;;6346289;22;20417;-77
2021/05/12 01:39:35;;;;;;;16.77;5.53;;;18.90;99.90;;;;;;6316966;22;20433;-77
2021/05/12 01:42:01;;;;;;;14.40;5.17;;;18.90;99.90;;;;;;6337991;22;20005;-76
2021/05/12 01:44:27;;;;;;;11.32;4.35;;;18.90;99.90;;;;;;6338415;22;20003;-77
2021/05/12 01:46:53;;;;;;;13.47;4.73;;;18.90;99.90;;;;;;6338015;22;20425;-78
2021/05/12 01:49:19;;;;;;;11.52;5.22;;;18.80;99.90;;;;;;6337930;22;20011;-77
2021/05/12 01:51:46;;;;;;;14.20;5.50;;;18.80;99.90;;;;;;6337956;22;20003;-81
2021/05/12 01:54:12;;;;;;;13.60;4.85;;;18.80;99.90;;;;;;6338037;22;19999;-79
2021/05/12 01:56:40;;;;;;;14.20;4.95;;;18.70;99.90;;;;;;6337938;22;20060;-77
2021/05/12 01:59:07;;;;;;;13.85;4.88;;;18.70;99.90;;;;;;6338162;22;20306;-78
2021/05/12 02:01:34;;;;;;;15.23;5.07;;;18.70;99.90;;;;;;6310319;22;20009;-77
2021/05/12 02:04:08;;;;;;;10.75;4.63;;;18.70;99.90;;;;;;6338031;22;20048;-77
2021/05/12 02:06:34;;;;;;;10.90;4.97;;;18.80;99.90;;;;;;6334503;22;20014;-77
2021/05/12 02:09:07;;;;;;;16.60;6.43;;;18.60;99.90;;;;;;6337724;22;20007;-77
2021/05/12 02:11:33;;;;;;;12.40;5.30;;;18.60;99.90;;;;;;6338005;22;20010;-77
2021/05/12 02:13:59;;;;;;;15.32;5.30;;;18.50;99.90;;;;;;6337860;22;20003;-81
2021/05/12 02:16:25;;;;;;;16.97;5.33;;;18.50;99.90;;;;;;6337808;22;20049;-77
2021/05/12 02:18:51;;;;;;;21.27;6.10;;;18.50;99.90;;;;;;6337854;22;20052;-76
2021/05/12 02:21:17;;;;;;;11.18;5.28;;;18.50;99.90;;;;;;6337623;22;20006;-81
2021/05/12 02:23:43;;;;;;;10.77;4.68;;;18.40;99.90;;;;;;6337996;22;20007;-79
2021/05/12 02:26:09;;;;;;;13.75;5.68;;;18.50;99.90;;;;;;6337906;22;20429;-77
2021/05/12 02:28:35;;;;;;;12.07;5.50;;;18.50;99.90;;;;;;6337628;22;20007;-76
2021/05/12 02:31:01;;;;;;;15.33;5.40;;;18.50;99.90;;;;;;6339369;22;20449;-76
2021/05/12 02:33:27;;;;;;;13.52;4.32;;;18.50;99.90;;;;;;6339477;22;20224;-81
2021/05/12 02:35:53;;;;;;;13.70;4.63;;;18.50;99.90;;;;;;6312062;22;20006;-79
2021/05/12 02:38:19;;;;;;;11.90;4.67;;;18.60;99.90;;;;;;6339691;22;20333;-80
2021/05/12 02:40:45;;;;;;;11.70;5.25;;;18.60;99.90;;;;;;6339447;22;20268;-76
2021/05/12 02:43:11;;;;;;;15.13;5.95;;;18.60;99.90;;;;;;6339496;22;20419;-80
2021/05/12 02:45:37;;;;;;;11.40;4.90;;;18.60;99.90;;;;;;6339543;22;20026;-76
2021/05/12 02:48:05;;;;;;;9.40;4.60;;;18.50;99.90;;;;;;6342030;22;20011;-76
2021/05/12 02:50:38;;;;;;;12.57;4.45;;;18.60;99.90;;;;;;6352851;22;20362;-82
2021/05/12 02:53:05;;;;;;;17.80;6.05;;;18.60;99.90;;;;;;6339468;22;20486;-79
2021/05/12 02:55:33;;;;;;;13.00;5.78;;;18.60;99.90;;;;;;6339304;22;20429;-76
2021/05/12 02:58:00;;;;;;;16.73;5.13;;;18.50;99.90;;;;;;6339554;22;20074;-78
2021/05/12 03:00:28;;;;;;;12.45;4.57;;;18.50;99.90;;;;;;6339370;22;20021;-79
2021/05/12 03:02:54;;;;;;;16.88;5.43;;;18.50;99.90;;;;;;6339344;22;20007;-81
2021/05/12 03:05:20;;;;;;;11.27;4.80;;;18.50;99.90;;;;;;6339105;22;20021;-76
2021/05/12 03:07:46;;;;;;;12.43;4.85;;;18.40;99.90;;;;;;6339290;22;20042;-77
2021/05/12 03:10:14;;;;;;;14.70;4.28;;;18.40;99.90;;;;;;6339163;22;20026;-79
2021/05/12 03:12:41;;;;;;;11.60;5.07;;;18.50;99.90;;;;;;6339211;22;20002;-76
2021/05/12 03:15:11;;;;;;;9.45;4.68;;;18.50;99.90;;;;;;6339559;22;20003;-77
2021/05/12 03:17:37;;;;;;;8.15;4.40;;;18.50;99.90;;;;;;6339465;22;20009;-78
2021/05/12 03:20:04;;;;;;;8.88;3.95;;;18.40;99.90;;;;;;6339051;22;19995;-78
2021/05/12 03:22:30;;;;;;;16.00;5.30;;;18.50;99.90;;;;;;6339129;22;20007;-82
2021/05/12 03:24:56;;;;;;;15.07;4.70;;;18.50;99.90;;;;;;6339152;22;20387;-78
2021/05/12 03:27:22;;;;;;;21.02;4.93;;;18.50;99.90;;;;;;6338973;22;20011;-79
2021/05/12 03:29:48;;;;;;;10.57;4.57;;;18.50;99.90;;;;;;6339042;22;20334;-79
2021/05/12 03:32:14;;;;;;;10.90;4.63;;;18.50;99.90;;;;;;6339236;22;20231;-77
2021/05/12 03:34:40;;;;;;;13.02;5.28;;;18.50;99.90;;;;;;6339076;22;20607;-77
2021/05/12 03:37:06;;;;;;;14.65;5.20;;;18.50;99.90;;;;;;6338963;22;19995;-82
2021/05/12 03:39:32;;;;;;;13.68;4.22;;;18.50;99.90;;;;;;6339058;22;20386;-77
2021/05/12 03:41:58;;;;;;;9.32;4.70;;;18.60;99.90;;;;;;6338468;22;20003;-76
2021/05/12 03:44:24;;;;;;;14.25;4.47;;;18.50;99.90;;;;;;6339018;22;20082;-82
2021/05/12 03:46:50;;;;;;;14.10;4.57;;;18.50;99.90;;;;;;6339332;22;20014;-82
2021/05/12 03:49:16;;;;;;;9.95;4.85;;;18.60;99.90;;;;;;6338885;22;20069;-76
2021/05/12 03:51:42;;;;;;;11.85;5.10;;;18.60;99.90;;;;;;6338848;22;19995;-76
2021/05/12 03:54:08;;;;;;;10.68;3.85;;;18.60;99.90;;;;;;6338821;22;20002;-76
2021/05/12 03:56:34;;;;;;;7.90;3.72;;;18.60;99.90;;;;;;6339011;22;20086;-80
2021/05/12 03:59:00;;;;;;;12.85;3.85;;;18.70;99.90;;;;;;6339561;22;20064;-77
2021/05/12 04:01:26;;;;;;;13.57;5.10;;;18.70;99.90;;;;;;6350620;22;19994;-76
2021/05/12 04:03:52;;;;;;;13.57;5.17;;;18.70;99.90;;;;;;6341600;22;20241;-76
2021/05/12 04:06:17;;;;;;;13.70;3.75;;;18.70;99.90;;;;;;6338767;22;20237;-82
2021/05/12 04:08:44;;;;;;;11.95;4.38;;;18.70;99.90;;;;;;6338948;22;20372;-77
2021/05/12 04:11:10;;;;;;;8.23;3.67;;;18.70;99.90;;;;;;6338787;22;20086;-78
2021/05/12 04:13:36;;;;;;;13.87;4.60;;;18.70;99.90;;;;;;6311815;22;19999;-82
2021/05/12 04:16:03;;;;;;;10.95;4.63;;;18.80;99.90;;;;;;6311669;22;20293;-77
2021/05/12 04:18:29;;;;;;;14.52;4.40;;;18.80;99.90;;;;;;6339186;22;19999;-79
2021/05/12 04:20:55;;;;;;;11.27;4.97;;;18.80;99.90;;;;;;6338612;22;20525;-79
2021/05/12 04:23:21;;;;;;;8.87;4.63;;;18.90;99.90;;;;;;6338588;22;20027;-76
2021/05/12 04:25:47;;;;;;;12.20;4.68;;;18.90;99.90;;;;;;6338672;22;20433;-78
2021/05/12 04:28:13;;;;;;;12.20;4.88;;;18.90;99.90;;;;;;6338472;22;20007;-77
2021/05/12 04:30:39;;;;;;;10.02;4.78;;;18.90;99.90;;;;;;6311251;22;19999;-77
2021/05/12 04:33:05;;;;;;;12.43;4.77;;;19.00;99.90;;;;;;6340487;22;20367;-77
2021/05/12 04:35:31;;;;;;;21.67;4.80;;;19.00;99.90;;;;;;6340160;22;20228;-77
2021/05/12 04:37:57;;;;;;;9.50;3.58;;;19.00;99.90;;;;;;6338521;22;20010;-81
2021/05/12 04:40:24;;;;;;;9.60;4.53;;;19.00;99.90;;;;;;6338481;22;20433;-79
2021/05/12 04:42:50;;;;;;;7.28;3.97;;;19.10;99.90;;;;;;6310963;22;20013;-77
2021/05/12 04:45:18;;;;;;;14.43;4.32;;;19.10;99.90;;;;;;6338665;22;20030;-77
2021/05/12 04:47:56;;;;;;;12.02;4.07;;;19.00;99.90;;;;;;6338553;22;20007;-77
2021/05/12 04:50:28;;;;;;;12.20;4.70;;;19.00;99.90;;;;;;6338416;22;19995;-78
2021/05/12 04:52:54;;;;;;;16.65;4.72;;;19.00;99.90;;;;;;6338366;22;20037;-77
2021/05/12 04:55:20;;;;;;;10.18;4.40;;;18.90;99.90;;;;;;6338579;22;19995;-77
2021/05/12 04:57:46;;;;;;;11.57;4.07;;;18.90;99.90;;;;;;6338879;22;20026;-78
2021/05/12 05:00:14;;;;;;;9.90;5.05;;;19.00;99.90;;;;;;6338299;22;20007;-82
2021/05/12 05:02:41;;;;;;;12.38;4.97;;;19.10;99.90;;;;;;6338355;22;20037;-78
2021/05/12 05:05:09;;;;;;;14.27;4.90;;;19.10;99.90;;;;;;6334705;22;20097;-78
2021/05/12 05:07:36;;;;;;;10.35;5.00;;;19.10;99.90;;;;;;6338248;22;20011;-78
2021/05/12 05:10:02;;;;;;;12.48;5.30;;;19.20;99.90;;;;;;6338751;22;19998;-84
2021/05/12 05:12:29;;;;;;;11.35;4.43;;;19.10;99.90;;;;;;6346824;22;19999;-78
2021/05/12 05:14:56;;;;;;;10.30;5.25;;;19.20;99.90;;;;;;6343997;22;20334;-78
2021/05/12 05:17:25;;;;;;;21.25;4.82;;;19.20;99.90;;;;;;6338186;22;20006;-83
2021/05/12 05:19:52;;;;;;;9.23;4.50;;;19.20;99.90;;;;;;6338176;22;20003;-83
2021/05/12 05:22:20;;;;;;;8.82;4.57;;;19.10;99.90;;;;;;6338251;22;20014;-77
2021/05/12 05:24:50;;;;;;;11.65;4.72;;;19.00;99.90;;;;;;6338313;22;20078;-77
2021/05/12 05:27:16;;;;;;;11.80;3.50;;;18.90;99.90;;;;;;6338184;22;20018;-80
2021/05/12 05:29:42;;;;;;;9.03;4.93;;;18.70;99.90;;;;;;6338367;22;19999;-78
2021/05/12 05:32:28;;;;;;;12.88;5.13;;;18.70;99.90;;;;;;6337889;22;20645;-78
2021/05/12 05:35:12;;;;;;;9.98;5.18;;;18.60;99.90;;;;;;6338134;22;20018;-76
2021/05/12 05:37:57;;;;;;;15.55;5.15;;;18.60;99.90;;;;;;6338462;22;20063;-78
2021/05/12 05:40:41;;;;;;;12.43;5.07;;;18.60;99.90;;;;;;6314630;22;20013;-79
2021/05/12 05:43:27;;;;;;;14.45;5.07;;;18.70;99.90;;;;;;6338095;22;20017;-82
2021/05/12 05:46:13;;;;;;;14.98;5.88;;;18.70;99.90;;;;;;6338287;22;20072;-84
2021/05/12 05:48:57;;;;;;;13.20;5.63;;;18.70;99.90;;;;;;6337995;22;20063;-78
2021/05/12 05:51:42;;;;;;;16.83;5.50;;;18.70;99.90;;;;;;6338231;22;20140;-81
2021/05/12 05:54:26;;;;;;;27.77;5.35;;;18.60;99.90;;;;;;6338013;22;20472;-79
2021/05/12 05:57:15;;;;;;;17.27;4.85;;;18.60;99.90;;;;;;6337967;22;20049;-80
2021/05/12 05:59:59;;;;;;;12.18;5.13;;;18.60;99.90;;;;;;6337983;22;20022;-80
2021/05/12 06:02:42;;;;;;;12.07;5.25;;;18.60;99.90;;;;;;6338014;22;19995;-78
2021/05/12 06:05:27;;;;;;;15.88;4.72;;;18.60;99.90;;;;;;6339096;22;20061;-77
2021/05/12 06:08:11;;;;;;;16.15;4.55;;;18.60;99.90;;;;;;6339801;22;20029;-82
2021/05/12 06:10:56;;;;;;;21.17;5.07;;;18.70;99.90;;;;;;6339958;22;20018;-77
2021/05/12 06:13:40;;;;;;;11.68;4.75;;;18.70;99.90;;;;;;6339898;22;20022;-78
2021/05/12 06:16:25;;;;;;;12.40;3.85;;;18.70;99.90;;;;;;6340050;22;20072;-78
2021/05/12 06:19:09;;;;;;;8.82;4.30;;;18.70;99.90;;;;;;6340123;22;20384;-81
2021/05/12 06:21:54;;;;;;;10.52;4.63;;;18.80;99.90;;;;;;6340255;22;20068;-77
2021/05/12 06:24:39;;;;;;;13.20;4.50;;;18.90;99.90;;;;;;6350442;22;20017;-78
2021/05/12 06:27:24;;;;;;;11.98;4.28;;;18.90;99.90;;;;;;6341845;22;20062;-83
2021/05/12 06:30:09;;;;;;;11.52;4.38;;;19.00;99.90;;;;;;6340070;22;20018;-83
2021/05/12 06:32:54;;;;;;;13.25;3.90;;;19.00;99.90;;;;;;6339950;22;20057;-81
2021/05/12 06:35:39;;;;;;;12.38;3.70;;;19.10;99.90;;;;;;6339856;22;20018;-81
2021/05/12 06:38:24;;;;;;;12.30;4.30;;;19.10;99.90;;;;;;6339657;22;20018;-81
2021/05/12 06:40:56;;;;;;;10.23;3.55;;;19.20;99.90;;;;;;6339847;22;20015;-81
2021/05/12 06:43:22;;;;;;;6.57;3.33;;;19.20;99.90;;;;;;6312511;22;20003;-81
2021/05/12 06:45:49;;;;;;;7.82;3.78;;;19.30;99.90;;;;;;6340158;22;20006;-79
2021/05/12 06:48:15;;;;;;;13.60;3.88;;;19.40;99.90;;;;;;6339805;22;20401;-83
2021/05/12 06:50:41;;;;;;;9.00;3.97;;;19.40;99.90;;;;;;6339805;22;20005;-83
2021/05/12 06:53:07;;;;;;;8.88;3.25;;;19.50;99.80;;;;;;6339702;22;20014;-83
2021/05/12 06:55:33;;;;;;;7.82;3.60;;;19.50;99.90;;;;;;6339812;22;19995;-80
2021/05/12 06:57:59;;;;;;;10.33;3.97;;;19.60;99.60;;;;;;6339626;22;20007;-83
2021/05/12 07:00:25;;;;;;;13.82;4.00;;;19.60;99.30;;;;;;6339621;22;20233;-80
2021/05/12 07:02:51;;;;;;;12.15;4.53;;;19.60;99.30;;;;;;6339536;22;20430;-80
2021/05/12 07:05:19;;;;;;;9.77;4.40;;;19.70;99.10;;;;;;6339603;22;20314;-83
2021/05/12 07:07:46;;;;;;;12.23;4.90;;;19.70;99.10;;;;;;6339604;22;20018;-82
2021/05/12 07:10:12;;;;;;;6.60;3.83;;;19.70;99.20;;;;;;6339435;22;19999;-80
2021/05/12 07:12:39;;;;;;;14.50;4.68;;;19.80;99.00;;;;;;6339501;22;19999;-78
2021/05/12 07:15:06;;;;;;;9.93;4.72;;;19.80;99.00;;;;;;6339438;22;20046;-81
2021/05/12 07:17:32;;;;;;;10.07;3.65;;;19.90;99.30;;;;;;6339446;22;20003;-79
2021/05/12 07:19:58;;;;;;;5.25;2.97;;;19.90;99.30;;;;;;6339800;22;19999;-81
2021/05/12 07:22:25;;;;;;;11.25;3.58;;;19.90;99.40;;;;;;6339670;22;20378;-81
2021/05/12 07:24:51;;;;;;;11.25;4.88;;;20.00;99.50;;;;;;6339425;22;20006;-82
2021/05/12 07:27:18;;;;;;;8.50;3.90;;;20.00;99.30;;;;;;6338954;22;20014;-80
2021/05/12 07:29:44;;;;;;;7.78;3.80;;;20.10;99.40;;;;;;6339066;22;20433;-81
2021/05/12 07:32:10;;;;;;;13.60;4.85;;;20.10;99.30;;;;;;6339259;22;20003;-82
2021/05/12 07:34:37;;;;;;;8.75;4.38;;;20.20;99.60;;;;;;6339582;22;20056;-83
2021/05/12 07:37:03;;;;;;;8.90;3.58;;;20.30;98.70;;;;;;6351521;22;20003;-84
2021/05/12 07:39:31;;;;;;;11.52;3.72;;;20.50;98.50;;;;;;6339442;22;20489;-81
2021/05/12 07:42:01;;;;;;;12.27;3.85;;;20.70;98.00;;;;;;6339146;22;20010;-80
2021/05/12 07:44:28;;;;;;;8.98;2.90;;;20.90;97.50;;;;;;6338950;22;20003;-83
2021/05/12 07:46:53;;;;;;;10.85;2.35;;;20.80;94.00;;;;;;6311354;22;20011;-84
2021/05/12 07:49:19;;;;;;;8.02;2.58;;;20.80;93.10;;;;;;6339096;22;20378;-83
2021/05/12 07:51:45;;;;;;;3.65;1.95;;;20.90;93.20;;;;;;6311394;22;20341;-84
2021/05/12 07:54:11;;;;;;;4.95;2.28;;;20.80;92.70;;;;;;6339028;22;20006;-83
2021/05/12 07:56:37;;;;;;;6.57;2.53;;;20.80;92.80;;;;;;6339255;22;20003;-82
2021/05/12 07:59:03;;;;;;;5.50;2.90;;;20.80;92.80;;;;;;6339326;22;20003;-84
2021/05/12 08:01:38;;;;;;;6.40;1.83;;;20.80;92.30;;;;;;6338829;22;20049;-84
2021/05/12 08:04:04;;;;;;;4.80;1.75;;;20.80;91.60;;;;;;6311233;22;20085;-83
2021/05/12 08:06:30;;;;;;;15.98;6.97;;;20.90;91.20;;;;;;6338556;22;20491;-81
2021/05/12 08:08:56;;;;;;;13.47;5.70;;;21.00;91.30;;;;;;6311329;22;20015;-84
2021/05/12 08:11:22;;;;;;;8.15;4.05;;;21.10;91.00;;;;;;6338661;22;20006;-81
2021/05/12 08:13:49;;;;;;;5.72;1.90;;;21.20;90.50;;;;;;6338842;22;19999;-83
2021/05/12 08:16:16;;;;;;;3.92;2.03;;;21.20;90.60;;;;;;6339193;22;20015;-79
2021/05/12 08:18:42;;;;;;;5.40;2.00;;;21.30;90.10;;;;;;6338754;22;19994;-84
2021/05/12 08:21:08;;;;;;;4.10;2.08;;;21.50;90.30;;;;;;6338541;22;20085;-81
2021/05/12 08:23:34;;;;;;;3.80;1.48;;;21.60;88.30;;;;;;6338719;22;20375;-81
2021/05/12 08:26:01;;;;;;;5.20;1.30;;;21.60;86.00;;;;;;6338829;22;20025;-84
2021/05/12 08:28:27;;;;;;;6.47;1.75;;;21.70;85.50;;;;;;6338248;22;20256;-81
2021/05/12 08:30:55;;;;;;;5.70;1.80;;;21.70;84.60;;;;;;6338734;22;20001;-82
2021/05/12 08:33:22;;;;;;;4.75;2.17;;;21.70;85.60;;;;;;6311226;22;20002;-81
2021/05/12 08:35:48;;;;;;;3.90;1.30;;;21.80;86.10;;;;;;6311034;22;19999;-80
2021/05/12 08:38:19;;;;;;;6.10;1.83;;;21.70;85.80;;;;;;6338756;22;20031;-80
2021/05/12 08:40:47;;;;;;;5.75;2.00;;;21.70;85.40;;;;;;6338437;22;20055;-82
2021/05/12 08:43:14;;;;;;;3.05;1.48;;;21.70;85.40;;;;;;6338431;22;20010;-82
2021/05/12 08:45:43;;;;;;;3.63;1.83;;;21.70;85.50;;;;;;6311597;22;20452;-83
2021/05/12 08:48:13;;;;;;;4.53;1.88;;;21.70;85.60;;;;;;6348162;22;20011;-76
2021/05/12 08:50:40;;;;;;;9.57;2.13;;;21.80;86.10;;;;;;6340232;22;19995;-80
2021/05/12 08:53:07;;;;;;;6.22;1.60;;;21.80;86.00;;;;;;6310927;22;20007;-79
2021/05/12 08:55:33;;;;;;;6.40;2.15;;;21.80;85.30;;;;;;6338594;22;19999;-79
2021/05/12 08:58:00;;;;;;;7.95;1.77;;;21.80;85.80;;;;;;6338405;22;20002;-81
2021/05/12 09:00:27;;;;;;;4.07;1.63;;;21.90;86.10;;;;;;6338360;22;20067;-79
2021/05/12 09:02:53;;;;;;;5.07;1.77;;;21.90;85.20;;;;;;6338396;22;20003;-82
2021/05/12 09:05:20;;;;;;;4.25;1.60;;;21.90;85.40;;;;;;6338073;22;20018;-77
2021/05/12 09:07:46;;;;;;;5.90;1.75;;;22.00;85.90;;;;;;6338389;22;20089;-76
2021/05/12 09:10:14;;;;;;;6.18;1.40;;;22.10;85.60;;;;;;6338338;22;20082;-79
2021/05/12 09:12:48;;;;;;;6.32;2.13;;;22.20;85.50;;;;;;6338647;22;20085;-78
2021/05/12 09:15:17;;;;;;;4.57;2.08;;;22.60;85.60;;;;;;6338419;22;20010;-81
2021/05/12 09:17:45;;;;;;;3.17;1.60;;;22.90;83.70;;;;;;6311023;22;20082;-79
2021/05/12 09:20:20;;;;;;;7.32;1.88;;;23.20;82.60;;;;;;6338275;22;20383;-81
2021/05/12 09:23:03;;;;;;;6.75;2.22;;;23.50;82.40;;;;;;6310544;22;20311;-82
2021/05/12 09:25:32;;;;;;;8.52;2.40;;;23.80;82.00;;;;;;6310623;22;19999;-80
2021/05/12 09:28:13;;;;;;;4.75;2.00;;;24.10;86.10;;;;;;6310609;22;20018;-81
2021/05/12 09:30:41;;;;;;;5.20;2.50;;;24.30;86.30;;;;;;6310438;22;19999;-80
2021/05/12 09:33:08;;;;;;;6.28;1.83;;;24.60;85.60;;;;;;6338201;22;20354;-81
2021/05/12 09:35:42;;;;;;;4.93;2.20;;;24.80;84.60;;;;;;6338179;22;20425;-81
2021/05/12 09:38:21;;;;;;;4.10;2.10;;;24.70;84.60;;;;;;6338003;22;20048;-80
2021/05/12 09:41:05;;;;;;;10.35;2.03;;;25.00;83.30;;;;;;6337951;22;20002;-81
2021/05/12 09:43:33;;;;;;;4.07;2.00;;;25.00;82.10;;;;;;6338632;22;20056;-78
2021/05/12 09:46:42;;;;;;;2.95;1.75;;;25.20;82.80;;;;;;6339300;22;20006;-82
2021/05/12 09:49:14;;;;;;;5.32;2.10;;;25.30;83.60;;;;;;6332884;22;20011;-78
2021/05/12 09:51:46;;;;;;;3.33;1.63;;;25.70;83.60;;;;;;6339347;22;20007;-78
2021/05/12 09:54:18;;;;;;;4.97;1.80;;;26.00;82.00;;;;;;6339339;22;19994;-78
2021/05/12 09:56:55;;;;;;;4.30;2.20;;;26.30;81.30;;;;;;6338705;22;20051;-82
2021/05/12 09:59:26;;;;;;;5.28;1.50;;;26.30;78.80;;;;;;6346995;22;20213;-78
2021/05/12 10:01:57;;;;;;;5.55;1.65;;;26.60;79.60;;;;;;6313148;22;20007;-83
2021/05/12 10:07:13;;;;;;;4.57;1.45;;;27.00;77.20;;;;;;6337785;22;20015;-80
2021/05/12 10:09:41;;;;;;;2.10;1.23;;;27.00;77.10;;;;;;6337858;22;20376;-82
2021/05/12 10:12:16;;;;;;;2.55;1.08;;;26.60;75.80;;;;;;6337965;22;19999;-83
2021/05/12 10:14:45;;;;;;;2.75;1.30;;;26.10;75.90;;;;;;6310421;22;20441;-81
2021/05/12 10:17:14;;;;;;;3.83;1.10;;;25.30;76.90;;;;;;6338175;22;19999;-84
2021/05/12 10:19:41;;;;;;;2.72;1.30;;;24.80;76.80;;;;;;6338156;22;20006;-83
2021/05/12 10:22:07;;;;;;;5.28;1.35;;;24.70;78.20;;;;;;6337938;22;20079;-82
2021/05/12 10:24:35;;;;;;;4.80;1.50;;;24.60;78.20;;;;;;6310416;22;20066;-83
2021/05/12 10:27:07;;;;;;;4.82;1.15;;;24.40;78.20;;;;;;6337860;22;20089;-81
2021/05/12 10:29:33;;;;;;;6.55;1.45;;;24.40;79.20;;;;;;6338403;22;19995;-83
2021/05/12 10:31:59;;;;;;;4.50;1.00;;;24.30;79.10;;;;;;6337751;22;20007;-83
2021/05/12 10:34:39;;;;;;;2.83;1.58;;;23.90;77.90;;;;;;6337804;22;19999;-82
2021/05/12 10:37:23;;;;;;;4.82;1.35;;;23.80;79.00;;;;;;6337675;22;20019;-83
2021/05/12 10:39:53;;;;;;;4.05;1.38;;;23.80;78.90;;;;;;6337941;22;20060;-77
2021/05/12 10:45:39;;;;;;;3.25;1.08;;;24.70;78.50;;;;;;6337744;22;20007;-82
2021/05/12 10:48:06;;;;;;;2.08;0.82;;;24.60;76.80;;;;;;6337576;22;20021;-82
2021/05/12 10:50:46;;;;;;;4.72;1.55;;;24.80;77.30;;;;;;6338119;22;19999;-82
2021/05/12 10:53:25;;;;;;;3.47;1.30;;;25.00;76.50;;;;;;6339355;22;20022;-82
2021/05/12 10:55:57;;;;;;;6.20;0.90;;;25.20;76.40;;;;;;6312059;22;20033;-82
2021/05/12 10:58:37;;;;;;;3.60;1.10;;;25.20;76.10;;;;;;6339596;22;20002;-83
2021/05/12 11:01:09;;;;;;;5.03;1.05;;;25.10;75.90;;;;;;6339713;22;20010;-83
2021/05/12 11:03:50;;;;;;;3.40;1.60;;;25.20;76.20;;;;;;6339478;22;20464;-82
2021/05/12 11:06:20;;;;;;;2.67;1.27;;;25.20;74.40;;;;;;6339130;22;20037;-82
2021/05/12 11:09:08;;;;;;;3.03;1.13;;;25.20;75.10;;;;;;6339605;22;20464;-83
2021/05/12 11:11:52;;;;;;;5.10;1.25;;;25.00;74.80;;;;;;6350642;22;20005;-83
2021/05/12 11:14:25;;;;;;;5.05;1.10;;;24.90;75.00;;;;;;6339471;22;20007;-81
2021/05/12 11:17:06;;;;;;;3.25;1.10;;;24.70;75.00;;;;;;6339331;22;20081;-83
2021/05/12 11:20:02;;;;;;;6.93;1.20;;;24.60;75.90;;;;;;6339915;22;20078;-82
2021/05/12 11:22:35;;;;;;;2.85;0.98;;;24.60;76.00;;;;;;6339220;22;20003;-82
2021/05/12 11:33:07;;;;;;;2.55;0.90;;;24.30;77.10;;;;;;6311315;22;20369;-78
2021/05/12 11:35:35;;;;;;;1.83;1.03;;;24.00;74.50;;;;;;6339130;22;19999;-83
2021/05/12 11:38:13;;;;;;;1.35;0.90;;;23.90;76.70;;;;;;6338973;22;20368;-81
2021/05/12 11:40:39;;;;;;;3.45;1.52;;;23.80;75.40;;;;;;6338936;22;20002;-81
2021/05/12 11:43:05;;;;;;;1.93;0.97;;;23.40;75.70;;;;;;6339046;22;19999;-82
2021/05/12 11:45:31;;;;;;;1.30;0.80;;;23.10;76.60;;;;;;6338998;22;20002;-78
2021/05/12 11:48:02;;;;;;;3.17;1.20;;;22.90;77.50;;;;;;6338865;22;20144;-83
2021/05/12 11:50:31;;;;;;;3.95;1.10;;;22.90;79.20;;;;;;6338948;22;20467;-80
2021/05/12 11:52:58;;;;;;;2.55;0.90;;;23.00;79.50;;;;;;6311380;22;20081;-83
2021/05/12 11:55:27;;;;;;;2.30;1.00;;;23.30;79.60;;;;;;6338820;22;20002;-78
2021/05/12 11:57:53;;;;;;;3.70;1.85;;;23.40;79.30;;;;;;6339068;22;20003;-79
2021/05/12 12:00:23;;;;;;;3.95;1.23;;;23.70;78.50;;;;;;6338838;22;20413;-78
2021/05/12 12:03:10;;;;;;;4.07;1.15;;;23.90;78.50;;;;;;6338250;22;20014;-80
2021/05/12 12:05:48;;;;;;;3.28;0.80;;;24.40;78.80;;;;;;6338606;22;20333;-80
2021/05/12 12:08:16;;;;;;;2.65;1.00;;;25.30;78.70;;;;;;6338804;22;20014;-77
2021/05/12 12:10:43;;;;;;;4.28;1.33;;;25.80;77.50;;;;;;6338724;22;20073;-77
2021/05/12 12:13:15;;;;;;;2.28;0.93;;;25.90;76.50;;;;;;6311276;22;20352;-82
2021/05/12 12:15:45;;;;;;;2.38;1.00;;;25.70;75.50;;;;;;6338706;22;19995;-81
2021/05/12 12:18:12;;;;;;;2.67;1.27;;;25.50;75.80;;;;;;6338928;22;20062;-82
2021/05/12 12:20:38;;;;;;;4.88;1.20;;;25.80;77.30;;;;;;6311420;22;20085;-82
2021/05/12 12:23:05;;;;;;;2.05;0.98;;;26.20;76.70;;;;;;6349004;22;20005;-79
2021/05/12 12:25:44;;;;;;;3.55;1.10;;;26.80;76.00;;;;;;6312576;22;20082;-82
2021/05/12 12:28:10;;;;;;;4.32;1.65;;;27.20;75.20;;;;;;6338607;22;20333;-83
2021/05/12 12:30:38;;;;;;;0.93;0.77;;;27.60;73.70;;;;;;6339538;22;20009;-83
2021/05/12 12:33:04;;;;;;;2.88;1.20;;;27.40;72.80;;;;;;6338643;22;20282;-83
2021/05/12 12:35:30;;;;;;;4.00;1.73;;;27.60;73.00;;;;;;6338714;22;20006;-83
2021/05/12 12:37:56;;;;;;;4.38;1.10;;;27.60;72.90;;;;;;6338666;22;20064;-82
2021/05/12 12:40:24;;;;;;;3.58;1.40;;;27.70;73.50;;;;;;6338578;22;19995;-83
2021/05/12 12:42:53;;;;;;;3.80;1.50;;;27.80;72.50;;;;;;6338826;22;20014;-83
2021/05/12 12:45:21;;;;;;;3.20;1.35;;;28.10;72.10;;;;;;6310880;22;20006;-81
2021/05/12 12:48:01;;;;;;;3.78;1.08;;;27.90;71.50;;;;;;6338909;22;20015;-77
2021/05/12 12:50:30;;;;;;;1.00;0.85;;;27.60;72.00;;;;;;6338932;22;20460;-83
2021/05/12 12:53:10;;;;;;;5.28;1.08;;;27.70;72.30;;;;;;6338703;22;20069;-82
2021/05/12 12:55:38;;;;;;;3.45;1.67;;;28.00;72.70;;;;;;6338523;22;20002;-84
2021/05/12 12:58:07;;;;;;;2.65;1.20;;;28.30;72.00;;;;;;6338176;22;20065;-83
2021/05/12 13:00:37;;;;;;;3.25;1.17;;;28.50;72.20;;;;;;6338514;22;20013;-82
2021/05/12 13:03:16;;;;;;;2.45;1.10;;;28.70;71.90;;;;;;6338817;22;20055;-79
2021/05/12 13:05:43;;;;;;;3.03;1.00;;;29.00;71.00;;;;;;6338472;22;20124;-83
2021/05/12 13:08:35;;;;;;;2.95;1.38;;;29.10;70.80;;;;;;6311310;22;20015;-82
2021/05/12 13:11:04;;;;;;;3.88;1.35;;;29.30;69.00;;;;;;6338825;22;20010;-83
2021/05/12 13:13:38;;;;;;;2.50;1.20;;;29.40;69.10;;;;;;6339139;22;20119;-83
2021/05/12 13:16:32;;;;;;;2.05;1.10;;;29.50;68.70;;;;;;6311010;22;19998;-79